Nearby METAR Reports

Actuele Vliegveldwaarnemingen NL (METAR).Zie KNMI uitleg METAR hier

EHAM - Amsterdam/Schiph, Netherlands
Distance from station: ONO 18km
Updated: 30/10/2020 11:25
Gedeeltelijk bewolkt
Gedeeltelijk bewolkt
 Wind van ZW
Wind: ZW 35 km/h
Temperatuur: 16°C
Dauwpunt: 13°C
Vochtigheid: 83%
Barometer: 1015 hPa
Clouds: Gedeeltelijk bewolkt
Visibility: 10 km
Cloud details: Few Clouds 335 m
Gedeeltelijk bewolkt 1158 m
2020/10/30 10:25 EHAM 301025Z 23019KT 200V260 9999 FEW011 SCT038 16/13 Q1015 TEMPO BKN015
EHKD - DE KOOY/DE KOOY
Updated: 30/10/2020 11:34
Lichte regen, Zwaar bewolkt
Lichte regen, Zwaar bewolkt
 Wind van ZW
Wind: ZW 30 km/h
Temperatuur: 15°C
Dauwpunt: 13°C
Vochtigheid: 88%
Barometer: 1014 hPa
Overzicht: Lichte regen
Clouds: Zwaar bewolkt
Visibility: 6 km
Cloud details: Few Clouds 213 m
Meestal bewolkt 457 m
Zwaar bewolkt 579 m
2020/10/30 10:34 EHKD 301034Z AUTO 22016KT 6000 -RA FEW007 BKN015 OVC019 15/13 Q1014 WHT TEMPO 4000 DZRA SCT007 BKN010
 
EHLW - LEEUWARDEN/LEEUWARDEN
Updated: 30/10/2020 11:40
Lichte regen, Drizzle, Zwaar bewolkt
Lichte regen, Drizzle, Zwaar bewolkt
 Wind van WZW
Wind: WZW 31 km/h
Temperatuur: 14°C
Dauwpunt: 13°C
Vochtigheid: 94%
Barometer: 1014 hPa
Overzicht: Lichte regen, Drizzle
Clouds: Zwaar bewolkt
Visibility: 6 km
Cloud details: Few Clouds 244 m
Gedeeltelijk bewolkt 274 m
Few Clouds 457 m
Zwaar bewolkt 488 m
2020/10/30 10:40 EHLW 301040Z AUTO 24017KT 6000 -RADZ FEW008 SCT009 FEW015CB OVC016 14/13 Q1014 GRN TEMPO 3000 DZRA FEW005 SCT007 BKN018
EHVK - VOLKEL/VOLKEL
Updated: 30/10/2020 11:42
Zwaar bewolkt
Zwaar bewolkt
 Wind van WZW
Wind: WZW 20 km/h
Temperatuur: 14°C
Dauwpunt: 13°C
Vochtigheid: 94%
Barometer: 1018 hPa
Clouds: Zwaar bewolkt
Visibility: 10 km
Cloud details: Gedeeltelijk bewolkt 244 m
Meestal bewolkt 274 m
Zwaar bewolkt 305 m
2020/10/30 10:42 EHVK 301042Z AUTO 24011KT 9999 SCT008 BKN009 OVC010 14/13 Q1018 GRN TEMPO 3000 DZRA SCT005 BKN010 OVC015
 
EHFS - VLISSINGEN
Updated: 28/10/2020 14:25
NOT Current
Few Clouds
Few Clouds
 Wind van Z
Wind: Z 19 km/h
Temperatuur: 10°C
Wind Chill: 7°C
Dauwpunt: 8°C
Vochtigheid: 88%
Barometer: 1005 hPa
Clouds: Few Clouds
Visibility: 10 km
Cloud details: Few Clouds 1158 m
2020/10/28 13:25 EHFS 281325Z AUTO 19010KT 9999 FEW038/// 10/08 Q1005 REDZ
EHEH - EINDHOVEN/EINDHOVEN
Updated: 30/10/2020 11:25
Zwaar bewolkt
Zwaar bewolkt
 Wind van ZW
Wind: ZW 26 km/h
Temperatuur: 14°C
Dauwpunt: 13°C
Vochtigheid: 94%
Barometer: 1018 hPa
Clouds: Zwaar bewolkt
Visibility: 10 km
Cloud details: Meestal bewolkt 457 m
Zwaar bewolkt 579 m
2020/10/30 10:25 EHEH 301025Z AUTO 22014KT 200V270 9999 BKN015 OVC019 14/13 Q1018 WHT TEMPO SCT007 OVC010
 
EHGR - GILZE-RIJEN/GILZE-RIJEN
Updated: 30/10/2020 11:37
Zwaar bewolkt
Zwaar bewolkt
 Wind van ZW
Wind: ZW 17 km/h
Temperatuur: 15°C
Dauwpunt: 13°C
Vochtigheid: 88%
Barometer: 1018 hPa
Clouds: Zwaar bewolkt
Visibility: 10 km
Cloud details: Few Clouds 396 m
Zwaar bewolkt 457 m
2020/10/30 10:37 EHGR 301037Z AUTO 23009KT 190V270 9999 FEW013 OVC015 15/13 Q1018 WHT TEMPO SCT005 BKN008
EHDL - ARNHEM/DEELEN
Updated: 30/10/2020 11:25
Zwaar bewolkt
Zwaar bewolkt
 Wind van ZW
Wind: ZW 26 km/h
Temperatuur: 15°C
Dauwpunt: 13°C
Vochtigheid: 88%
Barometer: 1017 hPa
Clouds: Zwaar bewolkt
Visibility: 10 km
Cloud details: Gedeeltelijk bewolkt 366 m
Zwaar bewolkt 457 m
2020/10/30 10:25 EHDL 301025Z AUTO 23014KT 180V280 9999 SCT012 OVC015 15/13 Q1017 GRN
 
EHBK - MAASTRICHT/MAASTRICHT-AACHEN
Updated: 30/10/2020 11:25
Zwaar bewolkt
Zwaar bewolkt
 Wind van ZW
Wind: ZW 30 km/h
Temperatuur: 15°C
Dauwpunt: 11°C
Vochtigheid: 77%
Barometer: 1020 hPa
Clouds: Zwaar bewolkt
Visibility: 10 km
Cloud details: Meestal bewolkt 518 m
Zwaar bewolkt 640 m
2020/10/30 10:25 EHBK 301025Z AUTO 23016KT 190V260 9999 BKN017 OVC021 15/11 Q1020 NOSIG